Time;durP1;ratioP1;P1;durP2;ratioP2;P2;SDS_P1;SDS_P2;PMS_P1;PMS_P2;Temp;Humidity;BMP_temperature;BMP_pressure;BME280_temperature;BME280_humidity;BME280_pressure;Samples;Min_cycle;Max_cycle;Signal;HPM_P1;HPM_P2
2023/02/18 00:00:59;;;;;;;5.20;2.92;;;;;;;17.47;52.35;102205.28;6253699;22;20090;-91
2023/02/18 00:03:27;;;;;;;7.35;2.95;;;;;;;17.48;52.21;102201.78;6227995;22;20090;-91
2023/02/18 00:05:52;;;;;;;6.38;3.10;;;;;;;17.47;52.31;102200.94;6228404;22;20038;-92
2023/02/18 00:08:18;;;;;;;7.80;3.22;;;;;;;17.48;52.51;102194.00;6227996;22;20016;-91
2023/02/18 00:10:44;;;;;;;6.82;3.17;;;;;;;17.49;52.56;102206.16;6253268;22;20333;-93
2023/02/18 00:13:09;;;;;;;7.70;3.47;;;;;;;17.47;52.45;102205.28;6228829;22;20008;-92
2023/02/18 00:15:35;;;;;;;6.45;2.80;;;;;;;17.47;52.35;102198.31;6253368;22;20031;-92
2023/02/18 00:18:01;;;;;;;6.93;3.05;;;;;;;17.47;52.27;102197.47;6258331;22;20328;-90
2023/02/18 00:20:27;;;;;;;6.40;2.90;;;;;;;17.46;52.07;102194.00;6245918;22;20086;-90
2023/02/18 00:22:52;;;;;;;5.85;2.72;;;;;;;17.46;52.44;102193.09;6226804;22;20000;-92
2023/02/18 00:25:19;;;;;;;6.13;3.10;;;;;;;17.46;52.33;102198.28;6221563;22;20039;-92
2023/02/18 00:27:44;;;;;;;6.28;2.80;;;;;;;17.46;52.43;102185.28;6207816;22;20086;-90
2023/02/18 00:30:10;;;;;;;5.43;2.90;;;;;;;17.46;52.25;102172.28;6230893;22;20082;-93
2023/02/18 00:32:35;;;;;;;5.18;2.50;;;;;;;17.45;52.31;102174.00;6205566;22;20328;-93
2023/02/18 00:35:01;;;;;;;5.80;2.60;;;;;;;17.45;52.17;102184.41;6229447;22;20337;-92
2023/02/18 00:37:27;;;;;;;7.50;2.80;;;;;;;17.46;52.15;102183.59;6235362;22;20030;-92
2023/02/18 00:39:53;;;;;;;5.50;2.80;;;;;;;17.45;52.12;102168.81;6247487;22;20000;-91
2023/02/18 00:42:18;;;;;;;6.43;2.92;;;;;;;17.45;52.36;102174.00;6246701;22;20022;-93
2023/02/18 00:44:44;;;;;;;4.88;2.42;;;;;;;17.45;52.38;102176.63;6264176;22;20003;-92
2023/02/18 00:47:09;;;;;;;7.07;2.80;;;;;;;17.45;52.42;102171.41;6206186;22;20015;-93
2023/02/18 00:49:35;;;;;;;4.53;2.25;;;;;;;17.45;52.12;102174.00;6228472;22;20043;-92
2023/02/18 00:52:00;;;;;;;6.25;2.67;;;;;;;17.45;52.22;102171.41;6228519;22;20047;-92
2023/02/18 00:54:26;;;;;;;6.53;2.72;;;;;;;17.44;52.22;102180.09;6253374;22;20014;-92
2023/02/18 00:56:51;;;;;;;6.47;2.75;;;;;;;17.44;52.19;102179.19;6253636;22;20011;-93
2023/02/18 00:59:17;;;;;;;6.70;3.00;;;;;;;17.45;52.30;102173.16;6228868;22;20046;-92
2023/02/18 01:01:42;;;;;;;6.03;2.83;;;;;;;17.44;52.15;102172.28;6228599;22;20086;-92
2023/02/18 01:04:08;;;;;;;6.10;2.92;;;;;;;17.44;52.38;102156.66;6227601;22;20012;-91
2023/02/18 01:06:33;;;;;;;6.03;2.60;;;;;;;17.44;52.24;102154.06;6228021;22;20425;-92
2023/02/18 01:08:59;;;;;;;4.82;2.60;;;;;;;17.44;52.33;102145.34;6203558;22;20008;-91
2023/02/18 01:11:24;;;;;;;8.23;2.97;;;;;;;17.44;52.09;102129.75;6202888;22;20035;-91
2023/02/18 01:13:50;;;;;;;7.40;3.30;;;;;;;17.43;52.17;102130.63;6228687;22;20043;-92
2023/02/18 01:16:16;;;;;;;7.15;2.53;;;;;;;17.42;52.37;102136.66;6252892;22;20003;-93
2023/02/18 01:18:42;;;;;;;6.18;3.10;;;;;;;17.42;52.23;102137.56;6202047;22;20000;-92
2023/02/18 01:21:08;;;;;;;7.25;3.33;;;;;;;17.42;52.17;102137.56;6252617;22;20110;-91
2023/02/18 01:23:34;;;;;;;6.40;2.90;;;;;;;17.42;52.40;102129.75;6252925;22;20025;-91
2023/02/18 01:26:00;;;;;;;5.47;2.65;;;;;;;17.42;52.47;102137.56;6252889;22;20000;-90
2023/02/18 01:28:25;;;;;;;4.00;2.50;;;;;;;17.42;52.22;102140.16;6252560;22;20039;-90
2023/02/18 01:30:52;;;;;;;5.40;2.70;;;;;;;17.43;52.15;102138.41;6226845;22;20090;-91
2023/02/18 01:33:18;;;;;;;5.85;2.80;;;;;;;17.42;52.14;102132.34;6252310;22;20019;-91
2023/02/18 01:35:44;;;;;;;5.07;2.70;;;;;;;17.40;52.08;102133.19;6252169;22;20006;-89
2023/02/18 01:38:09;;;;;;;5.07;2.53;;;;;;;17.41;52.41;102121.91;6251787;22;19996;-88
2023/02/18 01:40:36;;;;;;;6.07;2.90;;;;;;;17.41;52.25;102121.91;6201531;22;20004;-90
2023/02/18 01:43:02;;;;;;;5.60;2.80;;;;;;;17.41;52.30;102112.38;6228078;22;20034;-93
2023/02/18 01:45:33;;;;;;;5.18;2.70;;;;;;;17.41;52.08;102107.16;6253079;22;20031;-92
2023/02/18 01:48:21;;;;;;;4.35;2.53;;;;;;;17.41;52.21;102101.09;6253241;22;20399;-93
2023/02/18 01:50:52;;;;;;;6.30;3.00;;;;;;;17.40;52.25;102100.22;6253219;22;20015;-92
2023/02/18 01:53:22;;;;;;;6.03;2.97;;;;;;;17.40;52.11;102095.03;6257118;22;20004;-94
2023/02/18 01:55:48;;;;;;;7.68;2.80;;;;;;;17.40;52.31;102091.56;6253083;22;20015;-92
2023/02/18 01:58:14;;;;;;;5.15;2.85;;;;;;;17.39;52.46;102084.59;6227887;22;20082;-92
2023/02/18 02:00:40;;;;;;;5.43;3.10;;;;;;;17.40;52.15;102082.00;6252930;22;20003;-91
2023/02/18 02:03:05;;;;;;;5.35;2.97;;;;;;;17.40;51.96;102068.13;6252602;22;20025;-92
2023/02/18 02:05:32;;;;;;;7.80;3.53;;;;;;;17.40;52.34;102062.94;6227366;22;20003;-89
2023/02/18 02:07:59;;;;;;;6.15;3.20;;;;;;;17.39;52.23;102053.38;6227089;22;20011;-89
2023/02/18 02:10:36;;;;;;;5.47;3.20;;;;;;;17.39;52.15;102043.81;6251729;22;20016;-89
2023/02/18 02:13:16;;;;;;;5.82;3.30;;;;;;;17.38;52.26;102036.88;6251690;22;20015;-89
2023/02/18 02:15:54;;;;;;;5.88;2.90;;;;;;;17.38;52.24;102036.88;6251889;22;20098;-89
2023/02/18 02:18:24;;;;;;;5.35;2.97;;;;;;;17.38;52.04;102020.41;6251653;22;20082;-89
2023/02/18 02:21:06;;;;;;;5.13;3.10;;;;;;;17.39;52.33;102019.53;6252860;22;20010;-94
2023/02/18 02:23:50;;;;;;;6.45;3.28;;;;;;;17.38;52.27;102008.25;6252746;22;20038;-93
2023/02/18 02:26:30;;;;;;;3.80;2.58;;;;;;;17.38;52.20;102002.19;6252678;22;20011;-93
2023/02/18 02:29:14;;;;;;;4.82;2.80;;;;;;;17.39;52.15;101993.53;6252429;22;20003;-93
2023/02/18 02:31:58;;;;;;;7.07;2.78;;;;;;;17.38;52.27;101986.59;6254554;22;20046;-92
2023/02/18 02:34:42;;;;;;;5.00;3.00;;;;;;;17.38;52.35;101984.84;6255378;22;20000;-90
2023/02/18 02:37:24;;;;;;;5.45;3.03;;;;;;;17.38;52.19;101995.25;6254172;22;20011;-91
2023/02/18 02:40:19;;;;;;;4.57;2.90;;;;;;;17.37;52.25;101985.69;6253959;22;20000;-91
2023/02/18 02:43:20;;;;;;;5.70;2.97;;;;;;;17.37;52.35;101977.88;6253736;22;20007;-90
2023/02/18 02:46:00;;;;;;;4.88;3.03;;;;;;;17.37;52.22;101974.41;6249166;22;20008;-91
2023/02/18 02:48:41;;;;;;;3.97;2.47;;;;;;;17.38;52.06;101979.66;6253512;22;20011;-89
2023/02/18 02:51:14;;;;;;;4.07;2.47;;;;;;;17.38;52.31;101976.19;6254193;22;20008;-90
2023/02/18 02:53:42;;;;;;;5.22;2.50;;;;;;;17.37;52.42;101969.22;6258132;22;20023;-92
2023/02/18 02:56:25;;;;;;;4.15;2.70;;;;;;;17.36;52.36;101973.56;6268051;22;20018;-92
2023/02/18 02:59:01;;;;;;;4.78;2.72;;;;;;;17.36;52.31;101965.75;6254681;22;20025;-93
2023/02/18 03:01:58;;;;;;;6.18;2.90;;;;;;;17.36;52.25;101954.47;6278775;22;20011;-92
2023/02/18 03:04:35;;;;;;;4.95;2.40;;;;;;;17.36;52.21;101955.34;6276626;22;20008;-92
2023/02/18 03:07:11;;;;;;;3.53;2.28;;;;;;;17.35;52.20;101940.56;6256042;22;20007;-90
2023/02/18 03:09:54;;;;;;;4.25;2.35;;;;;;;17.35;52.52;101945.78;6255394;22;20016;-91
2023/02/18 03:12:29;;;;;;;4.03;2.55;;;;;;;17.35;52.41;101940.56;6254559;22;20004;-91
2023/02/18 03:15:02;;;;;;;4.82;2.58;;;;;;;17.35;52.31;101931.91;6254429;22;20008;-91
2023/02/18 03:17:57;;;;;;;4.82;2.65;;;;;;;17.34;52.42;101928.44;6255023;22;20325;-90
2023/02/18 03:20:33;;;;;;;5.72;2.53;;;;;;;17.35;52.42;101917.16;6231994;23;20011;-91
2023/02/18 03:23:03;;;;;;;4.22;2.70;;;;;;;17.33;52.33;101903.25;6250149;22;20004;-91
2023/02/18 03:25:30;;;;;;;5.30;2.60;;;;;;;17.34;52.44;101906.75;6253755;22;20010;-91
2023/02/18 03:28:02;;;;;;;4.68;2.45;;;;;;;17.34;52.40;101902.41;6228713;22;20018;-92
2023/02/18 03:30:39;;;;;;;4.05;2.33;;;;;;;17.34;52.44;101909.34;6254156;22;20003;-90
2023/02/18 03:33:08;;;;;;;3.28;2.03;;;;;;;17.34;52.29;101898.94;6254598;22;20042;-91
2023/02/18 03:35:35;;;;;;;3.70;2.30;;;;;;;17.33;52.39;101882.44;6253972;22;20010;-91
2023/02/18 03:38:20;;;;;;;4.47;2.13;;;;;;;17.34;52.44;101884.19;6228269;22;20099;-91
2023/02/18 03:40:46;;;;;;;3.65;2.28;;;;;;;17.33;52.42;101877.25;6253502;22;20007;-91
2023/02/18 03:43:12;;;;;;;4.45;2.38;;;;;;;17.34;52.33;101878.13;6228345;22;20421;-92
2023/02/18 03:45:37;;;;;;;5.13;2.40;;;;;;;17.34;52.36;101872.94;6228157;22;20027;-91
2023/02/18 03:48:03;;;;;;;3.40;1.90;;;;;;;17.33;52.34;101864.22;6253362;22;20010;-92
2023/02/18 03:50:29;;;;;;;3.70;2.10;;;;;;;17.34;52.22;101867.72;6228367;22;20016;-93
2023/02/18 03:52:54;;;;;;;2.95;1.90;;;;;;;17.32;52.29;101846.91;6203131;22;20000;-92
2023/02/18 03:55:19;;;;;;;3.00;1.90;;;;;;;17.33;52.46;101869.44;6227693;22;20019;-92
2023/02/18 03:57:45;;;;;;;2.80;1.80;;;;;;;17.32;52.48;101859.03;6203544;22;20018;-90
2023/02/18 04:00:11;;;;;;;3.28;1.90;;;;;;;17.32;52.42;101841.69;6203487;22;20007;-90
2023/02/18 04:02:36;;;;;;;2.97;1.80;;;;;;;17.32;52.36;101836.50;6228352;22;20008;-92
2023/02/18 04:05:02;;;;;;;3.83;2.08;;;;;;;17.33;52.16;101851.22;6202998;22;20085;-93
2023/02/18 04:07:27;;;;;;;4.05;1.70;;;;;;;17.32;52.36;101854.69;6253880;22;20382;-92
2023/02/18 04:09:53;;;;;;;3.45;1.83;;;;;;;17.32;52.36;101841.69;6228113;22;20008;-92
2023/02/18 04:12:18;;;;;;;3.28;1.92;;;;;;;17.32;52.32;101835.63;6202870;22;20008;-91
2023/02/18 04:14:44;;;;;;;3.10;1.73;;;;;;;17.30;52.49;101835.59;6228068;22;20063;-92
2023/02/18 04:17:10;;;;;;;3.00;1.80;;;;;;;17.31;52.34;101826.94;6227500;22;20007;-93
2023/02/18 04:22:57;;;;;;;3.33;1.73;;;;;;;17.30;52.33;101830.41;6279961;22;20419;-94
2023/02/18 04:25:23;;;;;;;3.13;1.50;;;;;;;17.30;52.44;101819.13;6202370;22;20007;-90
2023/02/18 04:27:48;;;;;;;3.97;1.98;;;;;;;17.28;52.33;101812.16;6227669;22;20010;-93
2023/02/18 04:30:14;;;;;;;3.58;1.50;;;;;;;17.30;52.36;101811.31;6202601;22;20008;-91
2023/02/18 04:32:42;;;;;;;3.90;1.77;;;;;;;17.29;52.16;101807.84;6252384;22;20313;-93
2023/02/18 04:35:07;;;;;;;3.25;1.75;;;;;;;17.29;52.34;101802.66;6227821;22;20007;-91
2023/02/18 04:37:33;;;;;;;2.95;1.80;;;;;;;17.29;52.28;101802.66;6252430;22;20045;-91
2023/02/18 04:39:58;;;;;;;3.40;1.67;;;;;;;17.28;52.34;101796.56;6227733;22;20007;-91
2023/02/18 04:42:24;;;;;;;4.50;1.63;;;;;;;17.28;52.42;101806.09;6228760;22;20034;-91
2023/02/18 04:44:49;;;;;;;3.05;1.80;;;;;;;17.30;52.16;101800.91;6253123;22;20027;-92
2023/02/18 04:47:17;;;;;;;3.17;1.80;;;;;;;17.27;52.36;101802.63;6253211;22;20010;-93
2023/02/18 04:49:43;;;;;;;4.15;2.20;;;;;;;17.29;52.46;101794.84;6252771;22;20317;-92
2023/02/18 04:52:08;;;;;;;2.67;1.55;;;;;;;17.27;52.67;101794.84;6252400;22;20007;-92
2023/02/18 04:54:36;;;;;;;3.28;1.70;;;;;;;17.28;52.30;101806.97;6252531;22;20003;-92
2023/02/18 04:57:02;;;;;;;2.60;1.70;;;;;;;17.27;52.25;101789.63;6202687;22;20076;-92
2023/02/18 04:59:27;;;;;;;3.00;1.63;;;;;;;17.27;52.52;101778.38;6252991;22;19999;-93
2023/02/18 05:01:53;;;;;;;2.67;1.50;;;;;;;17.27;52.37;101780.97;6252766;22;19996;-92
2023/02/18 05:04:19;;;;;;;1.95;1.33;;;;;;;17.27;52.35;101775.75;6227574;22;20476;-92
2023/02/18 05:06:44;;;;;;;3.00;1.40;;;;;;;17.27;52.49;101778.38;6227446;22;20014;-93
2023/02/18 05:09:10;;;;;;;3.00;1.55;;;;;;;17.27;52.29;101767.97;6252184;22;20023;-91
2023/02/18 05:11:36;;;;;;;3.00;1.75;;;;;;;17.27;52.45;101770.56;6252398;22;20000;-89
2023/02/18 05:14:02;;;;;;;3.15;1.63;;;;;;;17.28;52.25;101767.06;6226587;22;20011;-89
2023/02/18 05:16:27;;;;;;;2.50;1.48;;;;;;;17.28;52.44;101767.06;6227110;22;20436;-91
2023/02/18 05:18:53;;;;;;;2.88;1.33;;;;;;;17.28;52.47;101770.53;6252521;22;20006;-89
2023/02/18 05:21:18;;;;;;;2.95;1.30;;;;;;;17.29;52.57;101768.84;6252068;22;20000;-91
2023/02/18 05:23:44;;;;;;;4.07;1.42;;;;;;;17.29;52.64;101761.03;6202635;22;20086;-90
2023/02/18 05:26:09;;;;;;;3.08;1.33;;;;;;;17.30;52.46;101767.09;6253251;22;20004;-91
2023/02/18 05:28:35;;;;;;;2.85;1.40;;;;;;;17.29;52.56;101774.03;6227266;22;20015;-92
2023/02/18 05:31:00;;;;;;;2.88;1.30;;;;;;;17.27;52.57;101768.81;6252576;22;20431;-89
2023/02/18 05:33:26;;;;;;;3.45;1.13;;;;;;;17.29;52.59;101776.66;6201920;22;20122;-89
2023/02/18 05:35:51;;;;;;;2.25;1.27;;;;;;;17.30;52.64;101775.75;6227546;22;20042;-91
2023/02/18 05:38:16;;;;;;;3.90;1.83;;;;;;;17.29;52.78;101763.63;6230916;22;20007;-89
2023/02/18 05:40:42;;;;;;;2.55;1.30;;;;;;;17.29;52.46;101761.03;6274143;22;19988;-89
2023/02/18 05:43:10;;;;;;;4.00;1.33;;;;;;;17.31;52.63;101761.03;6270425;22;20012;-88
2023/02/18 05:45:36;;;;;;;2.60;1.20;;;;;;;17.30;52.75;101754.09;6274196;22;20004;-85
2023/02/18 05:48:01;;;;;;;3.15;1.50;;;;;;;17.31;52.71;101764.50;6218827;22;20153;-88
2023/02/18 05:50:34;;;;;;;4.43;1.67;;;;;;;17.31;52.70;101764.50;6224830;23;20020;-90
2023/02/18 05:53:05;;;;;;;2.90;1.30;;;;;;;17.31;52.83;101759.31;6223088;23;20012;-90
2023/02/18 05:55:42;;;;;;;2.83;1.50;;;;;;;17.31;52.82;101761.03;6195968;23;20012;-90
2023/02/18 05:58:08;;;;;;;3.17;1.45;;;;;;;17.31;52.71;101748.91;6222518;23;20042;-89
2023/02/18 06:00:36;;;;;;;2.05;1.10;;;;;;;17.32;52.92;101749.78;6197464;23;20368;-90
2023/02/18 06:03:02;;;;;;;2.85;1.10;;;;;;;17.32;52.77;101761.03;6222238;23;20054;-90
2023/02/18 06:05:37;;;;;;;3.38;1.15;;;;;;;17.32;52.95;101753.22;6198652;23;20008;-89
2023/02/18 06:08:04;;;;;;;2.67;1.30;;;;;;;17.33;52.99;101765.38;6200464;23;20039;-88
2023/02/18 06:10:35;;;;;;;3.08;1.45;;;;;;;17.32;52.80;101748.03;6199134;23;20023;-90
2023/02/18 06:13:03;;;;;;;2.75;1.40;;;;;;;17.32;52.96;101755.84;6223591;23;20004;-88
2023/02/18 06:15:35;;;;;;;2.53;1.52;;;;;;;17.33;52.95;101748.91;6223729;23;20008;-90
2023/02/18 06:18:00;;;;;;;1.95;1.05;;;;;;;17.33;52.80;101741.94;6199436;23;20024;-89
2023/02/18 06:20:35;;;;;;;;;;;;;;;;;;;;;
2023/02/18 06:23:03;;;;;;;3.20;1.20;;;;;;;17.33;52.91;101734.16;6226806;23;20075;-88
2023/02/18 06:25:29;;;;;;;2.92;1.40;;;;;;;17.33;52.97;101733.28;6224147;23;20011;-91
2023/02/18 06:27:54;;;;;;;2.90;1.38;;;;;;;17.33;52.88;101744.56;6223488;23;20435;-89
2023/02/18 06:30:20;;;;;;;3.13;1.40;;;;;;;17.35;52.86;101752.38;6223102;23;20012;-90
2023/02/18 06:32:46;;;;;;;2.17;1.10;;;;;;;17.33;52.79;101739.34;6198421;23;20011;-88
2023/02/18 06:35:14;;;;;;;3.22;1.23;;;;;;;17.34;52.78;101745.44;6223526;23;20000;-89
2023/02/18 06:37:46;;;;;;;2.95;1.38;;;;;;;17.33;52.88;101734.16;6198623;23;20070;-88
2023/02/18 06:40:17;;;;;;;2.03;1.13;;;;;;;17.34;53.12;101750.66;6223624;23;20004;-89
2023/02/18 06:42:46;;;;;;;3.08;1.10;;;;;;;17.34;52.88;101733.31;6223091;23;20086;-89
2023/02/18 06:45:19;;;;;;;2.15;1.30;;;;;;;17.35;52.96;101737.63;6173789;23;20023;-90
2023/02/18 06:47:44;;;;;;;3.28;1.27;;;;;;;17.34;52.90;101724.63;6175105;23;20011;-90
2023/02/18 06:50:10;;;;;;;3.03;1.42;;;;;;;17.35;52.77;101732.44;6248128;22;20008;-89
2023/02/18 06:52:36;;;;;;;4.13;1.40;;;;;;;17.35;52.92;101728.97;6255124;22;20316;-89
2023/02/18 06:55:12;;;;;;;2.85;1.30;;;;;;;17.35;53.00;101726.34;6228648;22;20087;-90
2023/02/18 06:57:41;;;;;;;1.98;1.17;;;;;;;17.35;53.15;101736.75;6253494;22;20014;-89
2023/02/18 07:00:07;;;;;;;2.17;1.00;;;;;;;17.35;53.08;101736.75;6253502;22;20004;-87
2023/02/18 07:02:32;;;;;;;2.55;1.20;;;;;;;17.34;52.92;101728.09;6201988;22;20080;-84
2023/02/18 07:04:58;;;;;;;2.17;1.13;;;;;;;17.36;53.16;101728.13;6227114;22;20012;-86
2023/02/18 07:07:23;;;;;;;2.80;1.33;;;;;;;17.35;52.98;101706.41;6227436;22;20004;-86
2023/02/18 07:09:49;;;;;;;2.88;1.25;;;;;;;17.35;53.08;101706.41;6227444;22;20026;-89
2023/02/18 07:12:14;;;;;;;2.97;1.25;;;;;;;17.36;52.93;101713.38;6203465;22;20116;-88
2023/02/18 07:14:40;;;;;;;2.33;1.10;;;;;;;17.36;53.15;101699.50;6228069;22;20493;-91
2023/02/18 07:17:05;;;;;;;2.08;1.15;;;;;;;17.36;52.83;101710.78;6202962;22;20000;-90
2023/02/18 07:19:31;;;;;;;2.83;1.20;;;;;;;17.37;53.01;101704.69;6228598;22;20006;-89
2023/02/18 07:21:56;;;;;;;2.85;1.30;;;;;;;17.37;52.93;101725.50;6229300;22;20019;-90
2023/02/18 07:24:22;;;;;;;2.20;0.98;;;;;;;17.37;53.15;101711.63;6228118;22;20004;-90
2023/02/18 07:26:48;;;;;;;2.05;1.00;;;;;;;17.37;53.08;101738.50;6252531;22;20042;-87
2023/02/18 07:29:14;;;;;;;2.25;1.20;;;;;;;17.38;52.98;101732.47;6252570;22;19995;-85
2023/02/18 07:31:39;;;;;;;2.08;1.20;;;;;;;17.38;53.10;101729.00;6227966;22;20004;-87
2023/02/18 07:34:04;;;;;;;2.20;1.00;;;;;;;17.39;53.05;101738.53;6202631;22;20646;-87
2023/02/18 07:36:30;;;;;;;2.17;0.90;;;;;;;17.38;52.95;101729.84;6227315;22;20003;-88
2023/02/18 07:38:55;;;;;;;2.83;1.30;;;;;;;17.39;53.13;101742.00;6227452;22;20003;-90
2023/02/18 07:41:22;;;;;;;2.53;1.30;;;;;;;17.39;53.18;101736.78;6201415;22;20004;-83
2023/02/18 07:43:48;;;;;;;2.95;1.23;;;;;;;17.40;53.24;101737.69;6278689;22;19996;-85
2023/02/18 07:46:14;;;;;;;4.30;1.30;;;;;;;17.40;53.24;101722.06;6252829;22;20031;-90
2023/02/18 07:48:40;;;;;;;4.35;1.02;;;;;;;17.52;53.34;101726.47;6252538;22;20015;-87
2023/02/18 07:51:08;;;;;;;7.25;1.85;;;;;;;17.62;53.21;101731.72;6253138;22;20310;-88
2023/02/18 07:53:34;;;;;;;9.10;1.60;;;;;;;17.63;53.15;101728.22;6281453;22;20004;-88
2023/02/18 07:56:00;;;;;;;10.25;1.88;;;;;;;17.65;52.99;101720.44;6227326;22;20030;-89
2023/02/18 07:58:29;;;;;;;10.43;1.80;;;;;;;17.66;52.87;101730.88;6226486;22;20008;-86
2023/02/18 08:00:55;;;;;;;8.00;2.28;;;;;;;17.76;52.90;101731.75;6252351;22;20007;-81
2023/02/18 08:03:27;;;;;;;14.00;2.30;;;;;;;17.76;52.99;101738.72;6226832;22;20014;-91
2023/02/18 08:05:53;;;;;;;18.13;2.03;;;;;;;17.78;53.34;101731.78;6278127;22;20004;-81
2023/02/18 08:08:22;;;;;;;11.60;2.08;;;;;;;17.86;53.42;101743.13;6250440;22;20057;-79
2023/02/18 08:10:48;;;;;;;14.65;2.30;;;;;;;17.85;53.31;101733.56;6253330;22;20046;-81
2023/02/18 08:13:14;;;;;;;16.10;2.00;;;;;;;17.77;53.46;101745.63;6279388;22;20010;-77
2023/02/18 08:15:40;;;;;;;12.13;2.10;;;;;;;17.70;53.54;101736.94;6250882;22;20046;-81
2023/02/18 08:18:07;;;;;;;6.40;1.83;;;;;;;17.67;53.54;101731.72;6250702;22;20090;-77
2023/02/18 08:20:37;;;;;;;6.80;1.73;;;;;;;17.71;53.31;101736.09;6254024;22;20081;-80
2023/02/18 08:23:03;;;;;;;5.18;1.80;;;;;;;17.71;53.06;101736.09;6280391;22;20058;-80
2023/02/18 08:25:29;;;;;;;4.00;1.60;;;;;;;17.72;53.10;101749.97;6208888;22;20091;-79
2023/02/18 08:27:54;;;;;;;6.15;2.00;;;;;;;17.70;53.20;101757.75;6260217;22;20003;-79
2023/02/18 08:30:20;;;;;;;9.07;1.70;;;;;;;17.68;53.29;101757.78;6258001;22;20129;-78
2023/02/18 08:32:45;;;;;;;8.40;2.08;;;;;;;17.68;53.44;101760.38;6240046;22;20333;-82
2023/02/18 08:35:11;;;;;;;8.70;1.70;;;;;;;17.70;53.01;101762.97;6256675;22;20086;-86
2023/02/18 08:37:36;;;;;;;6.40;1.88;;;;;;;17.69;53.09;101756.91;6253907;22;20064;-87
2023/02/18 08:40:03;;;;;;;4.47;1.77;;;;;;;17.72;53.10;101756.03;6253819;22;20004;-86
2023/02/18 08:42:28;;;;;;;7.40;2.20;;;;;;;17.76;53.24;101763.00;6252844;22;20108;-86
2023/02/18 08:44:53;;;;;;;7.93;1.85;;;;;;;17.78;52.81;101768.22;6252867;22;20507;-87
2023/02/18 08:47:19;;;;;;;7.72;2.17;;;;;;;17.77;53.05;101754.34;6202208;22;20006;-85
2023/02/18 08:49:44;;;;;;;6.80;1.83;;;;;;;17.85;52.81;101749.19;6202641;22;20069;-91
2023/02/18 08:52:10;;;;;;;6.55;1.60;;;;;;;17.79;54.90;101757.81;6202141;22;20015;-88
2023/02/18 08:54:35;;;;;;;6.10;2.08;;;;;;;17.52;55.41;101763.75;6202300;22;20015;-88
2023/02/18 08:57:00;;;;;;;7.78;2.00;;;;;;;17.39;55.84;101770.63;6202317;22;20082;-87
2023/02/18 08:59:26;;;;;;;6.47;1.73;;;;;;;17.31;56.50;101771.44;6202678;22;20004;-87
2023/02/18 09:01:53;;;;;;;6.07;2.00;;;;;;;17.27;55.76;101766.22;6227487;22;20042;-87
2023/02/18 09:04:19;;;;;;;9.07;2.10;;;;;;;17.27;57.72;101768.81;6253499;22;20008;-87
2023/02/18 09:06:49;;;;;;;14.23;2.20;;;;;;;17.24;56.21;101776.59;6202797;22;20004;-87
2023/02/18 09:09:15;;;;;;;8.23;2.08;;;;;;;17.21;56.62;101771.38;6252197;22;20440;-87
2023/02/18 09:11:41;;;;;;;5.55;1.80;;;;;;;17.24;57.59;101779.19;6226543;22;20094;-87
2023/02/18 09:14:06;;;;;;;5.80;1.77;;;;;;;17.22;57.39;101788.75;6252289;22;20007;-87
2023/02/18 09:16:32;;;;;;;4.95;1.52;;;;;;;17.24;57.23;101794.78;6226811;22;20004;-87
2023/02/18 09:18:57;;;;;;;7.40;1.75;;;;;;;17.23;58.25;101790.47;6202133;22;20091;-87
2023/02/18 09:21:23;;;;;;;5.97;1.75;;;;;;;17.25;57.88;101793.94;6227329;22;20012;-87
2023/02/18 09:23:50;;;;;;;5.75;2.00;;;;;;;17.24;56.90;101789.59;6251780;22;20428;-87
2023/02/18 09:26:20;;;;;;;4.72;1.83;;;;;;;17.28;56.81;101798.28;6226977;22;20130;-87
2023/02/18 09:28:48;;;;;;;6.85;1.80;;;;;;;17.31;56.05;101794.84;6251635;22;19999;-88
2023/02/18 09:31:15;;;;;;;6.63;1.95;;;;;;;17.30;57.73;101806.13;6252331;22;20000;-87
2023/02/18 09:33:44;;;;;;;4.68;1.73;;;;;;;17.32;58.06;101801.81;6227208;22;20092;-87
2023/02/18 09:36:10;;;;;;;6.45;1.77;;;;;;;17.33;57.23;101809.59;6251861;22;20014;-87
2023/02/18 09:38:35;;;;;;;6.43;2.10;;;;;;;17.31;57.79;101813.94;6226896;22;20421;-87
2023/02/18 09:41:04;;;;;;;4.63;1.70;;;;;;;17.32;57.65;101813.06;6228724;22;20061;-87
2023/02/18 09:43:34;;;;;;;5.55;1.70;;;;;;;17.32;57.76;101815.66;6254495;22;20436;-88
2023/02/18 09:46:01;;;;;;;5.68;1.60;;;;;;;17.35;57.53;101820.88;6254101;22;20090;-87
2023/02/18 09:48:32;;;;;;;5.88;1.75;;;;;;;17.38;58.40;101823.53;6228767;22;20082;-87
2023/02/18 09:50:58;;;;;;;5.95;1.80;;;;;;;17.39;56.68;101812.25;6254522;22;20015;-87
2023/02/18 09:53:24;;;;;;;8.18;2.10;;;;;;;17.45;58.39;101819.22;6229428;22;20003;-87
2023/02/18 09:55:52;;;;;;;7.50;1.88;;;;;;;17.50;56.97;101838.34;6228969;22;20039;-87
2023/02/18 09:58:25;;;;;;;5.43;1.75;;;;;;;17.53;56.65;101827.06;6253626;22;20035;-87
2023/02/18 10:01:17;;;;;;;6.13;1.80;;;;;;;17.65;56.36;101838.44;6253423;22;20411;-86
2023/02/18 10:03:43;;;;;;;6.22;1.85;;;;;;;17.69;55.36;101832.38;6253340;22;20427;-87
2023/02/18 10:06:18;;;;;;;3.78;1.63;;;;;;;17.73;56.64;101828.09;6228388;22;20092;-87
2023/02/18 10:08:47;;;;;;;5.85;1.70;;;;;;;17.76;55.34;101833.28;6280021;22;20415;-85
2023/02/18 10:11:50;;;;;;;4.90;1.90;;;;;;;17.58;57.38;101838.41;6252768;22;20091;-85
2023/02/18 10:14:17;;;;;;;5.18;1.67;;;;;;;17.50;57.39;101832.28;6238153;22;20003;-83
2023/02/18 10:16:43;;;;;;;11.40;2.30;;;;;;;17.54;63.45;101828.84;6253162;22;20438;-86
2023/02/18 10:19:12;;;;;;;7.82;2.22;;;;;;;17.11;68.60;101833.72;6253268;22;20003;-85
2023/02/18 10:21:38;;;;;;;13.05;1.98;;;;;;;16.93;68.38;101837.91;6254214;22;20447;-87
2023/02/18 10:24:28;;;;;;;10.18;1.98;;;;;;;16.91;68.34;101842.22;6254161;22;19996;-86
2023/02/18 10:26:55;;;;;;;7.65;2.00;;;;;;;16.82;70.63;101849.94;6254616;22;19999;-86
2023/02/18 10:29:22;;;;;;;6.70;2.00;;;;;;;16.84;68.56;101850.81;6253440;22;20000;-87
2023/02/18 10:32:06;;;;;;;11.38;2.40;;;;;;;16.80;69.69;101867.22;6228287;22;20434;-87
2023/02/18 10:34:40;;;;;;;8.32;1.83;;;;;;;16.78;68.59;101858.50;6252924;22;20038;-82
2023/02/18 10:37:30;;;;;;;6.95;2.30;;;;;;;16.76;68.33;101852.44;6253815;22;20003;-87
2023/02/18 10:40:20;;;;;;;7.40;2.40;;;;;;;16.74;69.06;101860.19;6252992;22;20440;-84
2023/02/18 10:42:51;;;;;;;8.80;2.33;;;;;;;16.74;68.16;101875.78;6253769;22;20027;-83
2023/02/18 10:45:50;;;;;;;7.13;2.05;;;;;;;16.74;69.11;101867.13;6253227;22;20440;-84
2023/02/18 10:48:22;;;;;;;7.25;2.25;;;;;;;16.74;68.11;101873.19;6252162;22;20054;-83
2023/02/18 10:50:48;;;;;;;8.25;2.22;;;;;;;16.71;69.00;101870.56;6253044;22;20015;-91
2023/02/18 10:53:36;;;;;;;9.93;2.08;;;;;;;16.72;68.80;101874.91;6205523;22;20439;-89
2023/02/18 10:56:02;;;;;;;8.00;2.10;;;;;;;16.74;68.45;101874.94;6255809;22;20332;-89
2023/02/18 10:58:32;;;;;;;6.55;2.08;;;;;;;16.74;68.10;101873.19;6228879;22;20026;-91
2023/02/18 11:01:03;;;;;;;6.15;1.83;;;;;;;16.78;67.89;101876.72;6255961;22;20018;-89
2023/02/18 11:03:45;;;;;;;8.07;2.28;;;;;;;16.83;68.16;101870.75;6283924;22;20000;-91
2023/02/18 11:06:31;;;;;;;4.78;1.80;;;;;;;16.88;67.56;101867.31;6255802;22;20057;-91
2023/02/18 11:08:57;;;;;;;6.95;2.00;;;;;;;16.91;67.77;101869.94;6256496;22;20019;-90
2023/02/18 11:11:27;;;;;;;6.28;2.08;;;;;;;16.93;66.56;101870.84;6256275;22;20011;-89
2023/02/18 11:13:55;;;;;;;5.05;1.85;;;;;;;16.95;66.74;101876.91;6263760;22;19993;-90
2023/02/18 11:16:22;;;;;;;9.60;2.30;;;;;;;16.99;66.60;101881.28;6275016;22;20019;-89
2023/02/18 11:18:48;;;;;;;5.47;2.00;;;;;;;17.03;64.95;101886.53;6253157;22;20012;-93
2023/02/18 11:21:23;;;;;;;9.88;3.38;;;;;;;17.13;64.25;101868.41;6250735;22;19995;-89
2023/02/18 11:23:53;;;;;;;9.13;2.47;;;;;;;17.18;64.18;101874.50;6278531;22;20035;-89
2023/02/18 11:26:45;;;;;;;11.07;3.45;;;;;;;17.19;64.10;101889.28;6262328;22;20000;-89
2023/02/18 11:29:19;;;;;;;11.18;3.17;;;;;;;17.21;63.91;101888.44;6228602;22;20486;-89
2023/02/18 11:31:48;;;;;;;8.07;2.70;;;;;;;17.21;63.19;101871.97;6257480;22;20190;-91
2023/02/18 11:34:23;;;;;;;10.15;3.47;;;;;;;17.24;62.92;101887.56;6255543;22;20052;-90
2023/02/18 11:36:51;;;;;;;8.65;2.90;;;;;;;17.29;61.95;101872.91;6254709;22;20030;-90
2023/02/18 11:39:26;;;;;;;7.55;2.78;;;;;;;17.34;62.15;101878.13;6231336;22;20034;-90